sensor_id;sensor_type;location;lat;lon;timestamp;P1;durP1;ratioP1;P2;durP2;ratioP2
23362;SDS011;11853;48.080;11.960;2023-03-14T00:02:16;1.20;;;1.10;;
23362;SDS011;11853;48.080;11.960;2023-03-14T00:04:42;1.55;;;0.88;;
23362;SDS011;11853;48.080;11.960;2023-03-14T00:07:07;1.30;;;1.00;;
23362;SDS011;11853;48.080;11.960;2023-03-14T00:09:35;1.15;;;1.05;;
23362;SDS011;11853;48.080;11.960;2023-03-14T00:12:00;2.53;;;0.80;;
23362;SDS011;11853;48.080;11.960;2023-03-14T00:14:28;1.17;;;1.10;;
23362;SDS011;11853;48.080;11.960;2023-03-14T00:16:54;1.83;;;0.70;;
23362;SDS011;11853;48.080;11.960;2023-03-14T00:19:20;1.23;;;1.13;;
23362;SDS011;11853;48.080;11.960;2023-03-14T00:21:46;0.90;;;0.88;;
23362;SDS011;11853;48.080;11.960;2023-03-14T00:24:12;0.85;;;0.65;;
23362;SDS011;11853;48.080;11.960;2023-03-14T00:26:37;1.98;;;0.90;;
23362;SDS011;11853;48.080;11.960;2023-03-14T00:29:03;1.00;;;0.80;;
23362;SDS011;11853;48.080;11.960;2023-03-14T00:31:28;0.82;;;0.73;;
23362;SDS011;11853;48.080;11.960;2023-03-14T00:33:54;0.98;;;0.98;;
23362;SDS011;11853;48.080;11.960;2023-03-14T00:36:20;1.00;;;1.00;;
23362;SDS011;11853;48.080;11.960;2023-03-14T00:38:47;1.50;;;1.30;;
23362;SDS011;11853;48.080;11.960;2023-03-14T00:41:16;1.63;;;1.33;;
23362;SDS011;11853;48.080;11.960;2023-03-14T00:43:43;1.45;;;1.23;;
23362;SDS011;11853;48.080;11.960;2023-03-14T00:46:09;3.58;;;1.27;;
23362;SDS011;11853;48.080;11.960;2023-03-14T00:48:35;1.13;;;1.13;;
23362;SDS011;11853;48.080;11.960;2023-03-14T00:51:01;2.20;;;1.30;;
23362;SDS011;11853;48.080;11.960;2023-03-14T00:53:28;1.98;;;1.50;;
23362;SDS011;11853;48.080;11.960;2023-03-14T00:55:54;1.50;;;1.05;;
23362;SDS011;11853;48.080;11.960;2023-03-14T00:58:19;1.30;;;1.20;;
23362;SDS011;11853;48.080;11.960;2023-03-14T01:00:45;0.80;;;0.80;;
23362;SDS011;11853;48.080;11.960;2023-03-14T01:03:11;1.13;;;1.02;;
23362;SDS011;11853;48.080;11.960;2023-03-14T01:05:38;1.15;;;1.05;;
23362;SDS011;11853;48.080;11.960;2023-03-14T01:08:04;1.10;;;1.10;;
23362;SDS011;11853;48.080;11.960;2023-03-14T01:10:33;1.90;;;1.25;;
23362;SDS011;11853;48.080;11.960;2023-03-14T01:12:59;1.48;;;1.38;;
23362;SDS011;11853;48.080;11.960;2023-03-14T01:15:25;1.50;;;1.40;;
23362;SDS011;11853;48.080;11.960;2023-03-14T01:17:51;1.23;;;1.15;;
23362;SDS011;11853;48.080;11.960;2023-03-14T01:20:18;1.40;;;1.30;;
23362;SDS011;11853;48.080;11.960;2023-03-14T01:22:44;2.15;;;1.23;;
23362;SDS011;11853;48.080;11.960;2023-03-14T01:25:11;2.13;;;1.30;;
23362;SDS011;11853;48.080;11.960;2023-03-14T01:27:39;2.20;;;1.00;;
23362;SDS011;11853;48.080;11.960;2023-03-14T01:30:05;0.80;;;0.80;;
23362;SDS011;11853;48.080;11.960;2023-03-14T01:32:33;0.65;;;0.65;;
23362;SDS011;11853;48.080;11.960;2023-03-14T01:34:59;0.52;;;0.40;;
23362;SDS011;11853;48.080;11.960;2023-03-14T01:37:24;3.10;;;0.63;;
23362;SDS011;11853;48.080;11.960;2023-03-14T01:39:50;0.60;;;0.60;;
23362;SDS011;11853;48.080;11.960;2023-03-14T01:42:16;0.45;;;0.45;;
23362;SDS011;11853;48.080;11.960;2023-03-14T01:44:55;0.40;;;0.40;;
23362;SDS011;11853;48.080;11.960;2023-03-14T01:47:25;0.40;;;0.40;;
23362;SDS011;11853;48.080;11.960;2023-03-14T01:50:01;0.65;;;0.55;;
23362;SDS011;11853;48.080;11.960;2023-03-14T01:52:43;0.75;;;0.45;;
23362;SDS011;11853;48.080;11.960;2023-03-14T01:55:12;1.05;;;0.60;;
23362;SDS011;11853;48.080;11.960;2023-03-14T01:57:50;0.50;;;0.50;;
23362;SDS011;11853;48.080;11.960;2023-03-14T02:00:21;0.63;;;0.60;;
23362;SDS011;11853;48.080;11.960;2023-03-14T02:02:49;0.55;;;0.50;;
23362;SDS011;11853;48.080;11.960;2023-03-14T02:05:21;0.40;;;0.40;;
23362;SDS011;11853;48.080;11.960;2023-03-14T02:10:21;0.40;;;0.40;;
23362;SDS011;11853;48.080;11.960;2023-03-14T02:12:49;0.68;;;0.55;;
23362;SDS011;11853;48.080;11.960;2023-03-14T02:15:17;1.17;;;0.50;;
23362;SDS011;11853;48.080;11.960;2023-03-14T02:17:43;0.45;;;0.45;;
23362;SDS011;11853;48.080;11.960;2023-03-14T02:22:51;0.40;;;0.40;;
23362;SDS011;11853;48.080;11.960;2023-03-14T02:28:21;1.13;;;0.55;;
23362;SDS011;11853;48.080;11.960;2023-03-14T02:30:47;0.65;;;0.40;;
23362;SDS011;11853;48.080;11.960;2023-03-14T02:33:13;0.40;;;0.40;;
23362;SDS011;11853;48.080;11.960;2023-03-14T02:35:44;0.40;;;0.40;;
23362;SDS011;11853;48.080;11.960;2023-03-14T02:40:43;0.75;;;0.40;;
23362;SDS011;11853;48.080;11.960;2023-03-14T02:43:09;0.30;;;0.30;;
23362;SDS011;11853;48.080;11.960;2023-03-14T02:45:37;0.47;;;0.47;;
23362;SDS011;11853;48.080;11.960;2023-03-14T02:48:05;0.75;;;0.50;;
23362;SDS011;11853;48.080;11.960;2023-03-14T02:50:34;1.65;;;0.40;;
23362;SDS011;11853;48.080;11.960;2023-03-14T02:53:00;1.08;;;0.45;;
23362;SDS011;11853;48.080;11.960;2023-03-14T02:55:25;0.30;;;0.30;;
23362;SDS011;11853;48.080;11.960;2023-03-14T02:57:52;1.58;;;0.40;;
23362;SDS011;11853;48.080;11.960;2023-03-14T03:00:18;0.38;;;0.38;;
23362;SDS011;11853;48.080;11.960;2023-03-14T03:02:44;1.55;;;0.32;;
23362;SDS011;11853;48.080;11.960;2023-03-14T03:05:10;0.38;;;0.38;;
23362;SDS011;11853;48.080;11.960;2023-03-14T03:07:36;1.00;;;0.52;;
23362;SDS011;11853;48.080;11.960;2023-03-14T03:10:01;0.40;;;0.40;;
23362;SDS011;11853;48.080;11.960;2023-03-14T03:12:28;0.65;;;0.40;;
23362;SDS011;11853;48.080;11.960;2023-03-14T03:14:53;1.75;;;0.45;;
23362;SDS011;11853;48.080;11.960;2023-03-14T03:17:19;1.23;;;0.40;;
23362;SDS011;11853;48.080;11.960;2023-03-14T03:19:44;0.40;;;0.40;;
23362;SDS011;11853;48.080;11.960;2023-03-14T03:22:10;0.22;;;0.22;;
23362;SDS011;11853;48.080;11.960;2023-03-14T03:24:36;0.40;;;0.32;;
23362;SDS011;11853;48.080;11.960;2023-03-14T03:27:01;0.20;;;0.20;;
23362;SDS011;11853;48.080;11.960;2023-03-14T03:29:27;0.28;;;0.28;;
23362;SDS011;11853;48.080;11.960;2023-03-14T03:31:53;1.35;;;0.30;;
23362;SDS011;11853;48.080;11.960;2023-03-14T03:34:19;0.57;;;0.38;;
23362;SDS011;11853;48.080;11.960;2023-03-14T03:36:45;0.20;;;0.20;;
23362;SDS011;11853;48.080;11.960;2023-03-14T03:39:10;0.17;;;0.17;;
23362;SDS011;11853;48.080;11.960;2023-03-14T03:41:36;0.20;;;0.20;;
23362;SDS011;11853;48.080;11.960;2023-03-14T03:44:01;0.65;;;0.30;;
23362;SDS011;11853;48.080;11.960;2023-03-14T03:46:27;0.20;;;0.20;;
23362;SDS011;11853;48.080;11.960;2023-03-14T03:48:59;0.55;;;0.20;;
23362;SDS011;11853;48.080;11.960;2023-03-14T03:51:25;0.75;;;0.30;;
23362;SDS011;11853;48.080;11.960;2023-03-14T03:53:51;0.20;;;0.20;;
23362;SDS011;11853;48.080;11.960;2023-03-14T03:56:17;0.35;;;0.20;;
23362;SDS011;11853;48.080;11.960;2023-03-14T03:58:43;0.60;;;0.38;;
23362;SDS011;11853;48.080;11.960;2023-03-14T04:01:09;1.08;;;0.40;;
23362;SDS011;11853;48.080;11.960;2023-03-14T04:03:35;0.20;;;0.20;;
23362;SDS011;11853;48.080;11.960;2023-03-14T04:06:07;0.30;;;0.30;;
23362;SDS011;11853;48.080;11.960;2023-03-14T04:08:34;0.20;;;0.20;;
23362;SDS011;11853;48.080;11.960;2023-03-14T04:11:00;0.38;;;0.22;;
23362;SDS011;11853;48.080;11.960;2023-03-14T04:13:27;0.40;;;0.40;;
23362;SDS011;11853;48.080;11.960;2023-03-14T04:15:54;0.20;;;0.20;;
23362;SDS011;11853;48.080;11.960;2023-03-14T04:18:20;0.38;;;0.30;;
23362;SDS011;11853;48.080;11.960;2023-03-14T04:20:50;0.40;;;0.40;;
23362;SDS011;11853;48.080;11.960;2023-03-14T04:23:19;0.20;;;0.20;;
23362;SDS011;11853;48.080;11.960;2023-03-14T04:25:45;0.20;;;0.20;;
23362;SDS011;11853;48.080;11.960;2023-03-14T04:28:11;0.52;;;0.50;;
23362;SDS011;11853;48.080;11.960;2023-03-14T04:30:37;0.30;;;0.30;;
23362;SDS011;11853;48.080;11.960;2023-03-14T04:33:02;0.30;;;0.30;;
23362;SDS011;11853;48.080;11.960;2023-03-14T04:35:30;0.50;;;0.40;;
23362;SDS011;11853;48.080;11.960;2023-03-14T04:37:56;0.30;;;0.30;;
23362;SDS011;11853;48.080;11.960;2023-03-14T04:40:22;0.45;;;0.45;;
23362;SDS011;11853;48.080;11.960;2023-03-14T04:42:47;0.43;;;0.43;;
23362;SDS011;11853;48.080;11.960;2023-03-14T04:45:13;0.90;;;0.50;;
23362;SDS011;11853;48.080;11.960;2023-03-14T04:47:38;0.70;;;0.70;;
23362;SDS011;11853;48.080;11.960;2023-03-14T04:50:04;0.82;;;0.82;;
23362;SDS011;11853;48.080;11.960;2023-03-14T04:52:30;1.52;;;0.90;;
23362;SDS011;11853;48.080;11.960;2023-03-14T04:54:56;0.38;;;0.38;;
23362;SDS011;11853;48.080;11.960;2023-03-14T04:57:21;0.40;;;0.40;;
23362;SDS011;11853;48.080;11.960;2023-03-14T04:59:47;0.75;;;0.40;;
23362;SDS011;11853;48.080;11.960;2023-03-14T05:02:12;0.63;;;0.63;;
23362;SDS011;11853;48.080;11.960;2023-03-14T05:04:38;0.50;;;0.50;;
23362;SDS011;11853;48.080;11.960;2023-03-14T05:07:03;2.03;;;0.40;;
23362;SDS011;11853;48.080;11.960;2023-03-14T05:09:29;0.30;;;0.30;;
23362;SDS011;11853;48.080;11.960;2023-03-14T05:11:55;0.60;;;0.60;;
23362;SDS011;11853;48.080;11.960;2023-03-14T05:14:20;0.60;;;0.60;;
23362;SDS011;11853;48.080;11.960;2023-03-14T05:16:46;0.60;;;0.60;;
23362;SDS011;11853;48.080;11.960;2023-03-14T05:19:11;0.57;;;0.57;;
23362;SDS011;11853;48.080;11.960;2023-03-14T05:21:37;0.55;;;0.55;;
23362;SDS011;11853;48.080;11.960;2023-03-14T05:24:03;1.20;;;0.80;;
23362;SDS011;11853;48.080;11.960;2023-03-14T05:26:28;0.43;;;0.40;;
23362;SDS011;11853;48.080;11.960;2023-03-14T05:28:54;0.70;;;0.70;;
23362;SDS011;11853;48.080;11.960;2023-03-14T05:31:20;1.20;;;0.80;;
23362;SDS011;11853;48.080;11.960;2023-03-14T05:33:45;1.17;;;0.80;;
23362;SDS011;11853;48.080;11.960;2023-03-14T05:36:11;2.13;;;1.17;;
23362;SDS011;11853;48.080;11.960;2023-03-14T05:38:39;1.20;;;1.00;;
23362;SDS011;11853;48.080;11.960;2023-03-14T05:41:11;1.60;;;1.02;;
23362;SDS011;11853;48.080;11.960;2023-03-14T05:43:37;2.92;;;2.15;;
23362;SDS011;11853;48.080;11.960;2023-03-14T05:46:02;3.05;;;1.77;;
23362;SDS011;11853;48.080;11.960;2023-03-14T05:48:28;1.40;;;1.17;;
23362;SDS011;11853;48.080;11.960;2023-03-14T05:50:57;0.90;;;0.50;;
23362;SDS011;11853;48.080;11.960;2023-03-14T05:53:24;0.40;;;0.40;;
23362;SDS011;11853;48.080;11.960;2023-03-14T05:55:52;0.55;;;0.28;;
23362;SDS011;11853;48.080;11.960;2023-03-14T05:58:18;0.10;;;0.10;;
23362;SDS011;11853;48.080;11.960;2023-03-14T06:00:44;0.43;;;0.20;;
23362;SDS011;11853;48.080;11.960;2023-03-14T06:03:09;1.95;;;0.22;;
23362;SDS011;11853;48.080;11.960;2023-03-14T06:05:35;0.10;;;0.10;;
23362;SDS011;11853;48.080;11.960;2023-03-14T06:08:01;0.20;;;0.20;;
23362;SDS011;11853;48.080;11.960;2023-03-14T06:10:26;0.20;;;0.20;;
23362;SDS011;11853;48.080;11.960;2023-03-14T06:12:52;0.70;;;0.40;;
23362;SDS011;11853;48.080;11.960;2023-03-14T06:15:17;0.25;;;0.25;;
23362;SDS011;11853;48.080;11.960;2023-03-14T06:17:43;0.30;;;0.30;;
23362;SDS011;11853;48.080;11.960;2023-03-14T06:20:09;0.55;;;0.40;;
23362;SDS011;11853;48.080;11.960;2023-03-14T06:22:36;0.20;;;0.20;;
23362;SDS011;11853;48.080;11.960;2023-03-14T06:25:01;0.30;;;0.30;;
23362;SDS011;11853;48.080;11.960;2023-03-14T06:27:28;0.20;;;0.20;;
23362;SDS011;11853;48.080;11.960;2023-03-14T06:29:54;0.40;;;0.32;;
23362;SDS011;11853;48.080;11.960;2023-03-14T06:32:19;2.05;;;0.40;;
23362;SDS011;11853;48.080;11.960;2023-03-14T06:34:45;0.95;;;0.30;;
23362;SDS011;11853;48.080;11.960;2023-03-14T06:37:11;1.08;;;0.28;;
23362;SDS011;11853;48.080;11.960;2023-03-14T06:39:37;0.30;;;0.30;;
23362;SDS011;11853;48.080;11.960;2023-03-14T06:42:03;0.30;;;0.30;;
23362;SDS011;11853;48.080;11.960;2023-03-14T06:44:29;0.40;;;0.40;;
23362;SDS011;11853;48.080;11.960;2023-03-14T06:46:55;0.32;;;0.30;;
23362;SDS011;11853;48.080;11.960;2023-03-14T06:49:21;1.00;;;0.30;;
23362;SDS011;11853;48.080;11.960;2023-03-14T06:51:47;0.88;;;0.40;;
23362;SDS011;11853;48.080;11.960;2023-03-14T06:54:12;1.15;;;0.40;;
23362;SDS011;11853;48.080;11.960;2023-03-14T06:56:38;0.40;;;0.40;;
23362;SDS011;11853;48.080;11.960;2023-03-14T06:59:04;2.22;;;2.03;;
23362;SDS011;11853;48.080;11.960;2023-03-14T07:01:29;1.90;;;1.80;;
23362;SDS011;11853;48.080;11.960;2023-03-14T07:03:57;2.22;;;2.03;;
23362;SDS011;11853;48.080;11.960;2023-03-14T07:06:23;1.92;;;1.83;;
23362;SDS011;11853;48.080;11.960;2023-03-14T07:08:49;1.60;;;1.50;;
23362;SDS011;11853;48.080;11.960;2023-03-14T07:11:15;1.92;;;1.83;;
23362;SDS011;11853;48.080;11.960;2023-03-14T07:13:40;1.55;;;1.45;;
23362;SDS011;11853;48.080;11.960;2023-03-14T07:16:06;1.00;;;1.00;;
23362;SDS011;11853;48.080;11.960;2023-03-14T07:18:32;1.30;;;1.20;;
23362;SDS011;11853;48.080;11.960;2023-03-14T07:20:58;0.82;;;0.82;;
23362;SDS011;11853;48.080;11.960;2023-03-14T07:23:25;0.85;;;0.85;;
23362;SDS011;11853;48.080;11.960;2023-03-14T07:25:51;0.73;;;0.73;;
23362;SDS011;11853;48.080;11.960;2023-03-14T07:28:18;0.60;;;0.60;;
23362;SDS011;11853;48.080;11.960;2023-03-14T07:30:45;0.50;;;0.50;;
23362;SDS011;11853;48.080;11.960;2023-03-14T07:33:12;0.80;;;0.80;;
23362;SDS011;11853;48.080;11.960;2023-03-14T07:35:37;1.58;;;0.70;;
23362;SDS011;11853;48.080;11.960;2023-03-14T07:38:03;0.77;;;0.77;;
23362;SDS011;11853;48.080;11.960;2023-03-14T07:40:31;1.40;;;1.30;;
23362;SDS011;11853;48.080;11.960;2023-03-14T07:42:57;6.53;;;3.90;;
23362;SDS011;11853;48.080;11.960;2023-03-14T07:45:22;10.43;;;5.93;;
23362;SDS011;11853;48.080;11.960;2023-03-14T07:47:48;8.27;;;5.45;;
23362;SDS011;11853;48.080;11.960;2023-03-14T07:50:14;6.85;;;4.43;;
23362;SDS011;11853;48.080;11.960;2023-03-14T07:52:40;8.68;;;5.15;;
23362;SDS011;11853;48.080;11.960;2023-03-14T07:55:05;8.57;;;4.22;;
23362;SDS011;11853;48.080;11.960;2023-03-14T07:57:31;3.25;;;1.98;;
23362;SDS011;11853;48.080;11.960;2023-03-14T07:59:57;2.65;;;1.88;;
23362;SDS011;11853;48.080;11.960;2023-03-14T08:02:22;1.17;;;0.82;;
23362;SDS011;11853;48.080;11.960;2023-03-14T08:04:49;0.68;;;0.60;;
23362;SDS011;11853;48.080;11.960;2023-03-14T08:07:15;1.15;;;0.50;;
23362;SDS011;11853;48.080;11.960;2023-03-14T08:09:41;0.60;;;0.55;;
23362;SDS011;11853;48.080;11.960;2023-03-14T08:12:07;0.77;;;0.38;;
23362;SDS011;11853;48.080;11.960;2023-03-14T08:14:33;1.23;;;1.05;;
23362;SDS011;11853;48.080;11.960;2023-03-14T08:16:59;0.75;;;0.65;;
23362;SDS011;11853;48.080;11.960;2023-03-14T08:19:24;0.65;;;0.50;;
23362;SDS011;11853;48.080;11.960;2023-03-14T08:21:50;0.35;;;0.35;;
23362;SDS011;11853;48.080;11.960;2023-03-14T08:24:16;0.50;;;0.50;;
23362;SDS011;11853;48.080;11.960;2023-03-14T08:26:41;0.55;;;0.47;;
23362;SDS011;11853;48.080;11.960;2023-03-14T08:29:07;0.20;;;0.20;;
23362;SDS011;11853;48.080;11.960;2023-03-14T08:31:34;0.55;;;0.30;;
23362;SDS011;11853;48.080;11.960;2023-03-14T08:34:00;0.52;;;0.50;;
23362;SDS011;11853;48.080;11.960;2023-03-14T08:36:26;0.40;;;0.40;;
23362;SDS011;11853;48.080;11.960;2023-03-14T08:38:56;0.40;;;0.40;;
23362;SDS011;11853;48.080;11.960;2023-03-14T08:41:25;0.70;;;0.70;;
23362;SDS011;11853;48.080;11.960;2023-03-14T08:43:50;0.73;;;0.70;;
23362;SDS011;11853;48.080;11.960;2023-03-14T08:46:16;1.27;;;0.70;;
23362;SDS011;11853;48.080;11.960;2023-03-14T08:48:42;3.05;;;1.15;;
23362;SDS011;11853;48.080;11.960;2023-03-14T08:51:08;0.85;;;0.73;;
23362;SDS011;11853;48.080;11.960;2023-03-14T08:53:35;1.00;;;0.90;;
23362;SDS011;11853;48.080;11.960;2023-03-14T08:56:02;1.55;;;1.45;;
23362;SDS011;11853;48.080;11.960;2023-03-14T08:58:28;2.15;;;2.00;;
23362;SDS011;11853;48.080;11.960;2023-03-14T09:00:54;3.70;;;2.30;;
23362;SDS011;11853;48.080;11.960;2023-03-14T09:03:20;2.97;;;2.75;;
23362;SDS011;11853;48.080;11.960;2023-03-14T09:05:48;4.75;;;3.03;;
23362;SDS011;11853;48.080;11.960;2023-03-14T09:08:14;7.32;;;5.60;;
23362;SDS011;11853;48.080;11.960;2023-03-14T09:10:40;9.20;;;5.75;;
23362;SDS011;11853;48.080;11.960;2023-03-14T09:13:05;7.28;;;4.32;;
23362;SDS011;11853;48.080;11.960;2023-03-14T09:15:31;8.77;;;5.85;;
23362;SDS011;11853;48.080;11.960;2023-03-14T09:17:58;2.60;;;2.40;;
23362;SDS011;11853;48.080;11.960;2023-03-14T09:20:24;3.30;;;3.00;;
23362;SDS011;11853;48.080;11.960;2023-03-14T09:22:49;2.55;;;2.35;;
23362;SDS011;11853;48.080;11.960;2023-03-14T09:25:15;3.58;;;2.42;;
23362;SDS011;11853;48.080;11.960;2023-03-14T09:27:40;6.72;;;2.80;;
23362;SDS011;11853;48.080;11.960;2023-03-14T09:30:06;3.47;;;2.40;;
23362;SDS011;11853;48.080;11.960;2023-03-14T09:32:33;3.88;;;2.67;;
23362;SDS011;11853;48.080;11.960;2023-03-14T09:34:58;5.30;;;2.95;;
23362;SDS011;11853;48.080;11.960;2023-03-14T09:37:24;3.65;;;2.00;;
23362;SDS011;11853;48.080;11.960;2023-03-14T09:39:50;3.22;;;2.80;;
23362;SDS011;11853;48.080;11.960;2023-03-14T09:42:20;3.03;;;2.70;;
23362;SDS011;11853;48.080;11.960;2023-03-14T09:45:03;2.40;;;2.20;;
23362;SDS011;11853;48.080;11.960;2023-03-14T09:47:33;2.70;;;2.03;;
23362;SDS011;11853;48.080;11.960;2023-03-14T09:50:00;3.88;;;1.70;;
23362;SDS011;11853;48.080;11.960;2023-03-14T09:52:31;3.05;;;2.53;;
23362;SDS011;11853;48.080;11.960;2023-03-14T09:55:04;1.50;;;1.40;;
23362;SDS011;11853;48.080;11.960;2023-03-14T09:57:36;15.20;;;10.63;;
23362;SDS011;11853;48.080;11.960;2023-03-14T10:00:04;7.90;;;7.05;;
23362;SDS011;11853;48.080;11.960;2023-03-14T10:02:39;1.65;;;1.48;;
23362;SDS011;11853;48.080;11.960;2023-03-14T10:05:17;1.75;;;1.40;;
23362;SDS011;11853;48.080;11.960;2023-03-14T10:07:45;1.17;;;1.05;;
23362;SDS011;11853;48.080;11.960;2023-03-14T10:10:15;1.90;;;1.50;;
23362;SDS011;11853;48.080;11.960;2023-03-14T10:12:44;1.67;;;1.55;;
23362;SDS011;11853;48.080;11.960;2023-03-14T10:15:12;1.55;;;1.45;;
23362;SDS011;11853;48.080;11.960;2023-03-14T10:17:47;1.33;;;1.20;;
23362;SDS011;11853;48.080;11.960;2023-03-14T10:20:30;2.00;;;1.90;;
23362;SDS011;11853;48.080;11.960;2023-03-14T10:23:00;4.97;;;4.05;;
23362;SDS011;11853;48.080;11.960;2023-03-14T10:25:28;3.40;;;2.80;;
23362;SDS011;11853;48.080;11.960;2023-03-14T10:27:57;4.82;;;2.47;;
23362;SDS011;11853;48.080;11.960;2023-03-14T10:33:31;2.85;;;2.25;;
23362;SDS011;11853;48.080;11.960;2023-03-14T10:36:19;3.17;;;2.10;;
23362;SDS011;11853;48.080;11.960;2023-03-14T10:38:48;2.47;;;2.17;;
23362;SDS011;11853;48.080;11.960;2023-03-14T10:41:15;2.42;;;2.05;;
23362;SDS011;11853;48.080;11.960;2023-03-14T10:43:44;2.35;;;2.08;;
23362;SDS011;11853;48.080;11.960;2023-03-14T10:46:15;4.35;;;2.45;;
23362;SDS011;11853;48.080;11.960;2023-03-14T10:48:42;3.78;;;3.13;;
23362;SDS011;11853;48.080;11.960;2023-03-14T10:51:11;3.00;;;2.10;;
23362;SDS011;11853;48.080;11.960;2023-03-14T10:56:24;3.40;;;2.33;;
23362;SDS011;11853;48.080;11.960;2023-03-14T10:58:56;1.50;;;1.40;;
23362;SDS011;11853;48.080;11.960;2023-03-14T11:01:31;1.20;;;1.20;;
23362;SDS011;11853;48.080;11.960;2023-03-14T11:04:13;2.15;;;1.35;;
23362;SDS011;11853;48.080;11.960;2023-03-14T11:15:21;1.52;;;1.42;;
23362;SDS011;11853;48.080;11.960;2023-03-14T11:17:58;1.80;;;1.55;;
23362;SDS011;11853;48.080;11.960;2023-03-14T11:20:33;1.77;;;1.33;;
23362;SDS011;11853;48.080;11.960;2023-03-14T11:25:51;1.23;;;1.13;;
23362;SDS011;11853;48.080;11.960;2023-03-14T11:36:46;1.00;;;0.80;;
23362;SDS011;11853;48.080;11.960;2023-03-14T11:39:40;1.10;;;0.82;;
23362;SDS011;11853;48.080;11.960;2023-03-14T11:42:15;1.20;;;0.80;;
23362;SDS011;11853;48.080;11.960;2023-03-14T11:44:43;0.70;;;0.70;;
23362;SDS011;11853;48.080;11.960;2023-03-14T11:47:31;3.25;;;1.23;;
23362;SDS011;11853;48.080;11.960;2023-03-14T11:52:56;1.83;;;1.60;;
23362;SDS011;11853;48.080;11.960;2023-03-14T11:55:34;0.75;;;0.60;;
23362;SDS011;11853;48.080;11.960;2023-03-14T11:58:03;0.43;;;0.40;;
23362;SDS011;11853;48.080;11.960;2023-03-14T12:00:54;4.13;;;2.58;;
23362;SDS011;11853;48.080;11.960;2023-03-14T12:14:00;3.63;;;2.35;;
23362;SDS011;11853;48.080;11.960;2023-03-14T12:16:31;4.60;;;3.40;;
23362;SDS011;11853;48.080;11.960;2023-03-14T12:19:14;11.65;;;7.53;;
23362;SDS011;11853;48.080;11.960;2023-03-14T12:21:44;3.22;;;1.90;;
23362;SDS011;11853;48.080;11.960;2023-03-14T12:24:21;0.50;;;0.50;;
23362;SDS011;11853;48.080;11.960;2023-03-14T12:26:57;0.40;;;0.40;;
23362;SDS011;11853;48.080;11.960;2023-03-14T12:29:24;1.20;;;0.60;;
23362;SDS011;11853;48.080;11.960;2023-03-14T12:34:26;1.60;;;1.15;;
23362;SDS011;11853;48.080;11.960;2023-03-14T12:36:55;0.98;;;0.80;;
23362;SDS011;11853;48.080;11.960;2023-03-14T12:42:40;1.40;;;1.10;;
23362;SDS011;11853;48.080;11.960;2023-03-14T12:45:30;0.40;;;0.40;;
23362;SDS011;11853;48.080;11.960;2023-03-14T12:50:55;0.40;;;0.40;;
23362;SDS011;11853;48.080;11.960;2023-03-14T13:01:55;1.80;;;0.40;;
23362;SDS011;11853;48.080;11.960;2023-03-14T13:04:34;0.30;;;0.30;;
23362;SDS011;11853;48.080;11.960;2023-03-14T13:07:35;0.40;;;0.40;;
23362;SDS011;11853;48.080;11.960;2023-03-14T13:12:54;0.60;;;0.43;;
23362;SDS011;11853;48.080;11.960;2023-03-14T13:15:28;0.40;;;0.40;;
23362;SDS011;11853;48.080;11.960;2023-03-14T13:18:02;0.25;;;0.25;;
23362;SDS011;11853;48.080;11.960;2023-03-14T13:20:46;0.30;;;0.30;;
23362;SDS011;11853;48.080;11.960;2023-03-14T13:23:23;0.40;;;0.40;;
23362;SDS011;11853;48.080;11.960;2023-03-14T13:25:57;0.40;;;0.40;;
23362;SDS011;11853;48.080;11.960;2023-03-14T13:28:24;0.35;;;0.35;;
23362;SDS011;11853;48.080;11.960;2023-03-14T13:30:54;0.43;;;0.38;;
23362;SDS011;11853;48.080;11.960;2023-03-14T13:33:22;1.02;;;0.40;;
23362;SDS011;11853;48.080;11.960;2023-03-14T13:35:49;4.47;;;2.97;;
23362;SDS011;11853;48.080;11.960;2023-03-14T13:38:24;3.53;;;2.55;;
23362;SDS011;11853;48.080;11.960;2023-03-14T13:40:52;0.85;;;0.50;;
23362;SDS011;11853;48.080;11.960;2023-03-14T13:43:28;0.93;;;0.93;;
23362;SDS011;11853;48.080;11.960;2023-03-14T13:46:05;0.20;;;0.20;;
23362;SDS011;11853;48.080;11.960;2023-03-14T13:48:43;0.20;;;0.20;;
23362;SDS011;11853;48.080;11.960;2023-03-14T13:51:13;1.52;;;1.40;;
23362;SDS011;11853;48.080;11.960;2023-03-14T13:53:45;0.80;;;0.80;;
23362;SDS011;11853;48.080;11.960;2023-03-14T13:56:12;0.30;;;0.30;;
23362;SDS011;11853;48.080;11.960;2023-03-14T13:58:38;0.30;;;0.20;;
23362;SDS011;11853;48.080;11.960;2023-03-14T14:03:57;0.85;;;0.85;;
23362;SDS011;11853;48.080;11.960;2023-03-14T14:06:44;2.47;;;0.60;;
23362;SDS011;11853;48.080;11.960;2023-03-14T14:09:15;0.40;;;0.28;;
23362;SDS011;11853;48.080;11.960;2023-03-14T14:14:39;0.32;;;0.32;;
23362;SDS011;11853;48.080;11.960;2023-03-14T14:17:10;0.23;;;0.20;;
23362;SDS011;11853;48.080;11.960;2023-03-14T14:19:38;0.38;;;0.38;;
23362;SDS011;11853;48.080;11.960;2023-03-14T14:22:04;0.40;;;0.40;;
23362;SDS011;11853;48.080;11.960;2023-03-14T14:24:32;1.45;;;1.35;;
23362;SDS011;11853;48.080;11.960;2023-03-14T14:26:59;0.80;;;0.80;;
23362;SDS011;11853;48.080;11.960;2023-03-14T14:29:27;1.40;;;0.80;;
23362;SDS011;11853;48.080;11.960;2023-03-14T14:37:32;2.28;;;1.70;;
23362;SDS011;11853;48.080;11.960;2023-03-14T14:40:05;0.43;;;0.43;;
23362;SDS011;11853;48.080;11.960;2023-03-14T14:42:33;0.30;;;0.30;;
23362;SDS011;11853;48.080;11.960;2023-03-14T14:44:59;1.10;;;0.40;;
23362;SDS011;11853;48.080;11.960;2023-03-14T14:47:27;0.50;;;0.50;;
23362;SDS011;11853;48.080;11.960;2023-03-14T14:49:54;0.43;;;0.43;;
23362;SDS011;11853;48.080;11.960;2023-03-14T14:52:43;0.43;;;0.43;;
23362;SDS011;11853;48.080;11.960;2023-03-14T14:55:52;1.13;;;0.40;;
23362;SDS011;11853;48.080;11.960;2023-03-14T14:58:18;0.50;;;0.50;;
23362;SDS011;11853;48.080;11.960;2023-03-14T15:03:30;0.50;;;0.50;;
23362;SDS011;11853;48.080;11.960;2023-03-14T15:05:58;1.30;;;0.50;;
23362;SDS011;11853;48.080;11.960;2023-03-14T15:08:25;0.50;;;0.50;;
23362;SDS011;11853;48.080;11.960;2023-03-14T15:10:51;0.38;;;0.38;;
23362;SDS011;11853;48.080;11.960;2023-03-14T15:13:17;1.02;;;0.38;;
23362;SDS011;11853;48.080;11.960;2023-03-14T15:15:43;0.98;;;0.50;;
23362;SDS011;11853;48.080;11.960;2023-03-14T15:18:16;0.93;;;0.80;;
23362;SDS011;11853;48.080;11.960;2023-03-14T15:20:43;0.70;;;0.70;;
23362;SDS011;11853;48.080;11.960;2023-03-14T15:23:10;2.10;;;1.02;;
23362;SDS011;11853;48.080;11.960;2023-03-14T15:25:37;1.90;;;0.93;;
23362;SDS011;11853;48.080;11.960;2023-03-14T15:28:12;1.98;;;1.75;;
23362;SDS011;11853;48.080;11.960;2023-03-14T15:30:45;1.88;;;1.45;;
23362;SDS011;11853;48.080;11.960;2023-03-14T15:33:12;0.75;;;0.50;;
23362;SDS011;11853;48.080;11.960;2023-03-14T15:35:37;0.57;;;0.57;;
23362;SDS011;11853;48.080;11.960;2023-03-14T15:38:03;0.50;;;0.50;;
23362;SDS011;11853;48.080;11.960;2023-03-14T15:40:29;0.65;;;0.65;;
23362;SDS011;11853;48.080;11.960;2023-03-14T15:42:55;0.88;;;0.60;;
23362;SDS011;11853;48.080;11.960;2023-03-14T15:45:20;0.40;;;0.40;;
23362;SDS011;11853;48.080;11.960;2023-03-14T15:47:46;0.75;;;0.75;;
23362;SDS011;11853;48.080;11.960;2023-03-14T15:50:11;0.50;;;0.50;;
23362;SDS011;11853;48.080;11.960;2023-03-14T15:52:37;0.50;;;0.50;;
23362;SDS011;11853;48.080;11.960;2023-03-14T15:55:03;0.40;;;0.40;;
23362;SDS011;11853;48.080;11.960;2023-03-14T15:57:28;0.40;;;0.40;;
23362;SDS011;11853;48.080;11.960;2023-03-14T15:59:54;0.60;;;0.50;;
23362;SDS011;11853;48.080;11.960;2023-03-14T16:02:20;0.55;;;0.50;;
23362;SDS011;11853;48.080;11.960;2023-03-14T16:04:45;0.50;;;0.50;;